Terminal Aerodrome Forecast
Issued by NWS State College, PA

Home | Current Version | Previous Version | Text Only | Print | Product List | Glossary On
Versions: 1 2 3 4 5 6 7 8 9 10 11 12 13 14 15 16 17 18 19 20 21 22 23 24 25 26 27 28 29 30 31 32 33 34 35 36 37 38 39 40 41 42 43 44 45 46 47 48 49 50
187
FTUS41 KCTP 232339
TAFMDT
TAF
KMDT 232339Z 2400/2424 12014KT P6SM VCSH BKN025 OVC050
      WS020/16040KT
     FM240300 15016G26KT P6SM -SHRA OVC020 WS020/16050KT
      TEMPO 2406/2409 1SM +TSRA OVC015CB
     FM241000 22010G20KT 4SM -RA OVC008
     FM241200 26010KT 4SM -SHRA BR OVC012
     FM241600 22009KT P6SM BKN035=

USA.gov is the U.S. government's official web portal to all federal, state and local government web resources and services.